ADDS METAR Data INFO
IDs: Format: Raw Decoded Include TAF

Data at: 2314 UTC 15 Jul 2018

KCGE 152255Z AUTO 18004KT 10SM CLR 28/22 A2998 RMK A01
KCGE 152235Z AUTO 18004KT 10SM CLR 28/22 A2998 RMK A01
KCGE 152215Z AUTO VRB05KT 10SM CLR 28/22 A2998 RMK A01
KCGE 152155Z AUTO 17007KT 10SM CLR 29/22 A2998 RMK A01
KCGE 152135Z AUTO 19007KT 150V240 10SM CLR 29/22 A2998 RMK A01
KCGE 152115Z AUTO 19006KT 10SM CLR 29/22 A2998 RMK A01
KCGE 152055Z AUTO VRB04KT 10SM CLR 29/22 A2999 RMK A01
KCGE 152035Z AUTO 19006G11KT 10SM CLR 29/22 A3000 RMK A01
KCGE 152015Z AUTO VRB05G11KT 10SM CLR 29/22 A3000 RMK A01
KCGE 151955Z AUTO 19008KT 10SM FEW034 29/22 A3001 RMK A01
KCGE 151935Z AUTO 17008KT 10SM FEW035 30/22 A3001 RMK A01
KCGE 151915Z AUTO 19005G10KT 10SM FEW037 30/21 A3002 RMK A01
KCGE 151855Z AUTO VRB05KT 10SM FEW037 30/21 A3002 RMK A01
KCGE 151835Z AUTO 21004KT 10SM CLR 30/20 A3002 RMK A01
KCGE 151815Z AUTO 00000KT 10SM CLR 29/20 A3004 RMK A01
KCGE 151755Z AUTO 15009KT 10SM FEW120 29/20 A3003 RMK A01
KCGE 151735Z AUTO 19007KT 10SM CLR 29/20 A3003 RMK A01
KCGE 151715Z AUTO VRB06KT 10SM CLR 29/19 A3003 RMK A01
KCGE 151655Z AUTO VRB05KT 10SM CLR 29/20 A3003 RMK A01
KCGE 151635Z AUTO VRB04KT 10SM FEW110 28/19 A3004 RMK A01
KCGE 151615Z AUTO 17005KT 10SM SCT100 28/19 A3004 RMK A01
KCGE 151555Z AUTO 20005KT 10SM FEW110 28/19 A3004 RMK A01
KCGE 151535Z AUTO VRB06KT 10SM CLR 28/19 A3005 RMK A01
KCGE 151515Z AUTO VRB06KT 10SM CLR 28/19 A3005 RMK A01
KCGE 151455Z AUTO VRB06KT 10SM CLR 28/19 A3005 RMK A01
KCGE 151435Z AUTO 18006KT 10SM CLR 27/20 A3004 RMK A01
KCGE 151415Z AUTO 19006KT 10SM CLR 27/20 A3004 RMK A01
KCGE 151355Z AUTO 20006KT 10SM CLR 27/20 A3003 RMK A01
KCGE 151335Z AUTO 19006KT 10SM CLR 26/20 A3003 RMK A01
KCGE 151315Z AUTO 19004KT 10SM CLR 26/20 A3004 RMK A01
KCGE 151255Z AUTO VRB06KT 10SM CLR 25/20 A3005 RMK A01
KCGE 151235Z AUTO 20006KT 10SM CLR 25/20 A3005 RMK A01
KCGE 151215Z AUTO 20005KT 10SM CLR 24/20 A3005 RMK A01
KCGE 151155Z AUTO 20005KT 10SM CLR 24/20 A3005 RMK A01
KCGE 151135Z AUTO VRB05KT 10SM CLR 24/20 A3005 RMK A01
KCGE 151115Z AUTO 20004KT 10SM CLR 23/19 A3005 RMK A01
KCGE 151055Z AUTO 00000KT 10SM CLR 23/19 A3006 RMK A01
KCGE 151035Z AUTO 20004KT 10SM CLR 22/19 A3005 RMK A01
KCGE 151015Z AUTO 00000KT 10SM CLR 21/19 A3006 RMK A01
KCGE 150955Z AUTO 00000KT 10SM CLR 21/19 A3006 RMK A01
KCGE 150935Z AUTO 00000KT 10SM CLR 22/19 A3006 RMK A01
KCGE 150915Z AUTO 00000KT 10SM CLR 22/19 A3007 RMK A01
KCGE 150855Z AUTO 00000KT 10SM CLR 22/19 A3007 RMK A01
KCGE 150835Z AUTO 00000KT 10SM CLR 22/19 A3006 RMK A01
KCGE 150815Z AUTO 18004KT 10SM CLR 22/20 A3006 RMK A01
KCGE 150755Z AUTO 19003KT 10SM CLR 23/20 A3007 RMK A01
KCGE 150735Z AUTO 20004KT 10SM CLR 23/20 A3007 RMK A01
KCGE 150715Z AUTO 19004KT 10SM CLR 23/20 A3007 RMK A01
KCGE 150655Z AUTO 20005KT 10SM CLR 23/20 A3008 RMK A01
KCGE 150635Z AUTO 20005KT 10SM CLR 23/20 A3009 RMK A01
KCGE 150615Z AUTO 19004KT 10SM CLR 23/20 A3008 RMK A01
KCGE 150555Z AUTO 19003KT 10SM FEW049 23/20 A3008 RMK A01
KCGE 150535Z AUTO 19004KT 10SM CLR 23/20 A3009 RMK A01
KCGE 150515Z AUTO 19004KT 10SM CLR 23/20 A3010 RMK A01
KCGE 150455Z AUTO VRB04KT 10SM CLR 23/20 A3010 RMK A01
KCGE 150435Z AUTO 18005KT 10SM CLR 23/20 A3010 RMK A01
KCGE 150415Z AUTO 18005KT 10SM CLR 23/20 A3010 RMK A01
KCGE 150355Z AUTO 17006KT 10SM CLR 24/20 A3010 RMK A01
KCGE 150335Z AUTO 18006G11KT 10SM CLR 24/19 A3009 RMK A01
KCGE 150315Z AUTO 18005KT 10SM CLR 24/19 A3009 RMK A01
KCGE 150255Z AUTO 18006KT 10SM CLR 23/17 A3009 RMK A01
KCGE 150235Z AUTO 18005KT 10SM CLR 24/17 A3009 RMK A01
KCGE 150215Z AUTO VRB04KT 10SM CLR 24/16 A3009 RMK A01
KCGE 150155Z AUTO 17005KT 10SM CLR 24/16 A3008 RMK A01
KCGE 150135Z AUTO 17005KT 10SM CLR 24/15 A3008 RMK A01
KCGE 150115Z AUTO 17005KT 10SM CLR 24/15 A3008 RMK A01
KCGE 150055Z AUTO 18004KT 10SM CLR 24/14 A3008 RMK A01
KCGE 150035Z AUTO 16003KT 10SM CLR 25/14 A3008 RMK A01
KCGE 150015Z AUTO 00000KT 10SM CLR 25/15 A3007 RMK A01
KCGE 142355Z AUTO 18003KT 10SM CLR 26/14 A3007 RMK A01
KCGE 142335Z AUTO VRB04KT 10SM CLR 27/14 A3008 RMK A01
KCGE 142315Z AUTO 18004KT 10SM CLR 28/14 A3008 RMK A01
KCGE 142255Z AUTO 18006KT 10SM CLR 28/13 A3008 RMK A01
KCGE 142235Z AUTO VRB05G10KT 10SM CLR 28/13 A3009 RMK A01
KCGE 142215Z AUTO 18006KT 10SM CLR 29/14 A3010 RMK A01
KCGE 142155Z AUTO 18010KT 10SM CLR 29/14 A3011 RMK A01
KCGE 142135Z AUTO 19007KT 150V210 10SM CLR 29/15 A3011 RMK A01
KCGE 142115Z AUTO VRB06G12KT 10SM CLR 29/14 A3011 RMK A01
KCGE 142055Z AUTO 18006KT 10SM CLR 30/14 A3012 RMK A01
KCGE 142035Z AUTO VRB06G12KT 10SM CLR 30/12 A3013 RMK A01
KCGE 142015Z AUTO VRB06G11KT 10SM CLR 30/12 A3013 RMK A01
KCGE 141955Z AUTO 20007G12KT 10SM CLR 30/11 A3013 RMK A01
KCGE 141935Z AUTO 21008KT 10SM CLR 30/10 A3013 RMK A01
KCGE 141915Z AUTO 21008KT 180V240 10SM CLR 29/10 A3014 RMK A01
KCGE 141855Z AUTO 19008KT 10SM CLR 29/11 A3014 RMK A01
KCGE 141835Z AUTO 21008G13KT 170V250 10SM CLR 29/10 A3014 RMK A01
KCGE 141815Z AUTO VRB05KT 10SM CLR 29/09 A3015 RMK A01
KCGE 141755Z AUTO 20007G13KT 160V230 10SM CLR 29/09 A3016 RMK A01
KCGE 141735Z AUTO VRB06KT 10SM CLR 29/11 A3016 RMK A01
KCGE 141715Z AUTO 18005G12KT 10SM CLR 29/11 A3017 RMK A01
KCGE 141655Z AUTO VRB05G10KT 10SM CLR 29/12 A3017 RMK A01
KCGE 141635Z AUTO VRB07KT 200V260 10SM CLR 29/12 A3017 RMK A01
KCGE 141615Z AUTO 22007KT 200V260 10SM CLR 28/12 A3018 RMK A01
KCGE 141555Z AUTO 18007KT 10SM CLR 28/16 A3018 RMK A01
KCGE 141535Z AUTO 26005KT 10SM CLR 28/16 A3018 RMK A01
KCGE 141515Z AUTO 27007KT 10SM CLR 27/16 A3018 RMK A01
KCGE 141455Z AUTO 00000KT 10SM CLR 27/18 A3018 RMK A01
KCGE 141435Z AUTO 00000KT 10SM CLR 27/18 A3017 RMK A01
KCGE 141415Z AUTO 29004KT 10SM CLR 26/17 A3018 RMK A01
KCGE 141355Z AUTO 25004KT 10SM CLR 25/18 A3018 RMK A01
KCGE 141335Z AUTO 20005KT 10SM CLR 25/19 A3018 RMK A01
KCGE 141315Z AUTO 27004KT 10SM CLR 25/19 A3019 RMK A01
KCGE 141255Z AUTO VRB04KT 10SM CLR 24/19 A3019 RMK A01
KCGE 141235Z AUTO 00000KT 10SM CLR 23/19 A3019 RMK A01
KCGE 141215Z AUTO 13003KT 10SM CLR 22/19 A3018 RMK A01
KCGE 141155Z AUTO 00000KT 10SM CLR 20/18 A3018 RMK A01
KCGE 141135Z AUTO 00000KT 10SM CLR 19/17 A3018 RMK A01
KCGE 141115Z AUTO 00000KT 10SM CLR 18/16 A3018 RMK A01